sensor_id;sensor_type;location;lat;lon;timestamp;pressure;altitude;pressure_sealevel;temperature;humidity
69842;BME280;57138;51.326;-0.068;2023-10-13T00:00:40;99060.97;;;15.02;100.00
69842;BME280;57138;51.326;-0.068;2023-10-13T00:03:11;99058.34;;;15.07;100.00
69842;BME280;57138;51.326;-0.068;2023-10-13T00:05:44;99065.25;;;15.03;100.00
69842;BME280;57138;51.326;-0.068;2023-10-13T00:08:10;99049.59;;;15.00;100.00
69842;BME280;57138;51.326;-0.068;2023-10-13T00:10:35;99039.09;;;14.99;100.00
69842;BME280;57138;51.326;-0.068;2023-10-13T00:13:01;99036.63;;;14.97;100.00
69842;BME280;57138;51.326;-0.068;2023-10-13T00:15:47;99042.38;;;15.01;100.00
69842;BME280;57138;51.326;-0.068;2023-10-13T00:18:30;99028.66;;;15.02;100.00
69842;BME280;57138;51.326;-0.068;2023-10-13T00:21:12;99015.59;;;14.94;100.00
69842;BME280;57138;51.326;-0.068;2023-10-13T00:23:38;99031.34;;;15.02;100.00
69842;BME280;57138;51.326;-0.068;2023-10-13T00:26:20;99020.00;;;15.00;100.00
69842;BME280;57138;51.326;-0.068;2023-10-13T00:28:52;99016.50;;;15.00;100.00
69842;BME280;57138;51.326;-0.068;2023-10-13T00:31:39;99002.06;;;14.89;100.00
69842;BME280;57138;51.326;-0.068;2023-10-13T00:34:09;99004.69;;;15.01;100.00
69842;BME280;57138;51.326;-0.068;2023-10-13T00:36:37;98998.41;;;14.95;100.00
69842;BME280;57138;51.326;-0.068;2023-10-13T00:39:13;98988.88;;;14.87;100.00
69842;BME280;57138;51.326;-0.068;2023-10-13T00:41:44;99003.84;;;15.00;100.00
69842;BME280;57138;51.326;-0.068;2023-10-13T00:44:18;98986.59;;;14.96;100.00
69842;BME280;57138;51.326;-0.068;2023-10-13T00:46:53;98991.47;;;14.99;100.00
69842;BME280;57138;51.326;-0.068;2023-10-13T00:49:21;98964.91;;;14.86;100.00
69842;BME280;57138;51.326;-0.068;2023-10-13T00:51:47;98970.94;;;14.93;100.00
69842;BME280;57138;51.326;-0.068;2023-10-13T00:54:14;98950.50;;;14.97;100.00
69842;BME280;57138;51.326;-0.068;2023-10-13T00:56:45;98953.03;;;15.04;100.00
69842;BME280;57138;51.326;-0.068;2023-10-13T00:59:29;98962.06;;;15.15;100.00
69842;BME280;57138;51.326;-0.068;2023-10-13T01:02:00;98963.69;;;15.16;100.00
69842;BME280;57138;51.326;-0.068;2023-10-13T01:04:45;98957.00;;;15.18;100.00
69842;BME280;57138;51.326;-0.068;2023-10-13T01:07:12;98945.97;;;15.20;100.00
69842;BME280;57138;51.326;-0.068;2023-10-13T01:09:41;98938.41;;;15.17;100.00
69842;BME280;57138;51.326;-0.068;2023-10-13T01:12:07;98932.25;;;15.21;100.00
69842;BME280;57138;51.326;-0.068;2023-10-13T01:14:37;98942.34;;;15.31;100.00
69842;BME280;57138;51.326;-0.068;2023-10-13T01:17:02;98936.41;;;15.29;100.00
69842;BME280;57138;51.326;-0.068;2023-10-13T01:19:29;98930.00;;;15.35;100.00
69842;BME280;57138;51.326;-0.068;2023-10-13T01:21:57;98917.59;;;15.34;100.00
69842;BME280;57138;51.326;-0.068;2023-10-13T01:24:28;98923.03;;;15.39;100.00
69842;BME280;57138;51.326;-0.068;2023-10-13T01:26:59;98925.56;;;15.46;100.00
69842;BME280;57138;51.326;-0.068;2023-10-13T01:29:33;98910.69;;;15.43;100.00
69842;BME280;57138;51.326;-0.068;2023-10-13T01:31:59;98895.50;;;15.32;100.00
69842;BME280;57138;51.326;-0.068;2023-10-13T01:34:24;98894.25;;;15.40;100.00
69842;BME280;57138;51.326;-0.068;2023-10-13T01:36:54;98895.78;;;15.36;100.00
69842;BME280;57138;51.326;-0.068;2023-10-13T01:39:22;98881.97;;;15.27;100.00
69842;BME280;57138;51.326;-0.068;2023-10-13T01:41:52;98895.75;;;15.31;100.00
69842;BME280;57138;51.326;-0.068;2023-10-13T01:44:21;98879.72;;;15.19;100.00
69842;BME280;57138;51.326;-0.068;2023-10-13T01:46:46;98861.88;;;15.13;100.00
69842;BME280;57138;51.326;-0.068;2023-10-13T01:49:13;98863.22;;;15.10;100.00
69842;BME280;57138;51.326;-0.068;2023-10-13T01:51:41;98851.44;;;15.16;100.00
69842;BME280;57138;51.326;-0.068;2023-10-13T01:54:06;98846.56;;;15.13;100.00
69842;BME280;57138;51.326;-0.068;2023-10-13T01:56:37;98833.59;;;15.10;100.00
69842;BME280;57138;51.326;-0.068;2023-10-13T01:59:08;98828.75;;;15.12;100.00
69842;BME280;57138;51.326;-0.068;2023-10-13T02:01:36;98812.31;;;15.08;100.00
69842;BME280;57138;51.326;-0.068;2023-10-13T02:04:02;98795.00;;;14.99;100.00
69842;BME280;57138;51.326;-0.068;2023-10-13T02:06:33;98772.31;;;14.95;100.00
69842;BME280;57138;51.326;-0.068;2023-10-13T02:09:06;98781.56;;;15.04;100.00
69842;BME280;57138;51.326;-0.068;2023-10-13T02:11:43;98785.78;;;14.95;100.00
69842;BME280;57138;51.326;-0.068;2023-10-13T02:14:14;98760.38;;;14.86;100.00
69842;BME280;57138;51.326;-0.068;2023-10-13T02:16:43;98765.56;;;14.92;100.00
69842;BME280;57138;51.326;-0.068;2023-10-13T02:19:12;98762.63;;;14.94;100.00
69842;BME280;57138;51.326;-0.068;2023-10-13T02:21:44;98772.94;;;15.02;100.00
69842;BME280;57138;51.326;-0.068;2023-10-13T02:24:10;98751.84;;;14.94;100.00
69842;BME280;57138;51.326;-0.068;2023-10-13T02:26:44;98743.78;;;14.94;100.00
69842;BME280;57138;51.326;-0.068;2023-10-13T02:29:10;98752.84;;;14.88;100.00
69842;BME280;57138;51.326;-0.068;2023-10-13T02:31:39;98743.22;;;14.92;100.00
69842;BME280;57138;51.326;-0.068;2023-10-13T02:34:05;98750.53;;;14.97;100.00
69842;BME280;57138;51.326;-0.068;2023-10-13T02:36:38;98749.75;;;14.96;100.00
69842;BME280;57138;51.326;-0.068;2023-10-13T02:39:14;98752.97;;;14.98;100.00
69842;BME280;57138;51.326;-0.068;2023-10-13T02:41:41;98723.84;;;14.90;100.00
69842;BME280;57138;51.326;-0.068;2023-10-13T02:44:15;98700.69;;;14.89;100.00
69842;BME280;57138;51.326;-0.068;2023-10-13T02:46:52;98703.63;;;14.87;100.00
69842;BME280;57138;51.326;-0.068;2023-10-13T02:49:17;98684.81;;;14.92;100.00
69842;BME280;57138;51.326;-0.068;2023-10-13T02:51:47;98688.91;;;14.95;100.00
69842;BME280;57138;51.326;-0.068;2023-10-13T02:54:13;98663.22;;;14.82;100.00
69842;BME280;57138;51.326;-0.068;2023-10-13T02:56:43;98692.47;;;15.01;100.00
69842;BME280;57138;51.326;-0.068;2023-10-13T02:59:32;98669.50;;;14.93;100.00
69842;BME280;57138;51.326;-0.068;2023-10-13T03:02:13;98649.28;;;14.90;100.00
69842;BME280;57138;51.326;-0.068;2023-10-13T03:04:56;98638.25;;;14.87;100.00
69842;BME280;57138;51.326;-0.068;2023-10-13T03:07:29;98637.72;;;14.90;100.00
69842;BME280;57138;51.326;-0.068;2023-10-13T03:09:55;98651.31;;;15.05;100.00
69842;BME280;57138;51.326;-0.068;2023-10-13T03:12:28;98641.09;;;15.07;100.00
69842;BME280;57138;51.326;-0.068;2023-10-13T03:14:58;98636.56;;;15.13;100.00
69842;BME280;57138;51.326;-0.068;2023-10-13T03:17:40;98602.56;;;15.02;100.00
69842;BME280;57138;51.326;-0.068;2023-10-13T03:20:10;98621.00;;;15.20;100.00
69842;BME280;57138;51.326;-0.068;2023-10-13T03:22:42;98632.09;;;15.24;100.00
69842;BME280;57138;51.326;-0.068;2023-10-13T03:25:11;98622.41;;;15.28;100.00
69842;BME280;57138;51.326;-0.068;2023-10-13T03:27:43;98610.06;;;15.32;100.00
69842;BME280;57138;51.326;-0.068;2023-10-13T03:30:20;98594.72;;;15.38;100.00
69842;BME280;57138;51.326;-0.068;2023-10-13T03:32:47;98574.00;;;15.38;100.00
69842;BME280;57138;51.326;-0.068;2023-10-13T03:35:22;98584.81;;;15.43;100.00
69842;BME280;57138;51.326;-0.068;2023-10-13T03:37:55;98568.09;;;15.41;100.00
69842;BME280;57138;51.326;-0.068;2023-10-13T03:40:22;98555.19;;;15.43;100.00
69842;BME280;57138;51.326;-0.068;2023-10-13T03:42:52;98569.78;;;15.58;100.00
69842;BME280;57138;51.326;-0.068;2023-10-13T03:45:40;98547.13;;;15.49;100.00
69842;BME280;57138;51.326;-0.068;2023-10-13T03:48:18;98535.78;;;15.41;100.00
69842;BME280;57138;51.326;-0.068;2023-10-13T03:50:53;98536.13;;;15.55;100.00
69842;BME280;57138;51.326;-0.068;2023-10-13T03:53:38;98527.78;;;15.57;100.00
69842;BME280;57138;51.326;-0.068;2023-10-13T03:56:18;98538.03;;;15.60;100.00
69842;BME280;57138;51.326;-0.068;2023-10-13T03:59:02;98515.44;;;15.66;100.00
69842;BME280;57138;51.326;-0.068;2023-10-13T04:01:33;98531.34;;;15.68;100.00
69842;BME280;57138;51.326;-0.068;2023-10-13T04:04:25;98514.91;;;15.69;100.00
69842;BME280;57138;51.326;-0.068;2023-10-13T04:07:03;98501.41;;;15.64;100.00
69842;BME280;57138;51.326;-0.068;2023-10-13T04:09:38;98504.94;;;15.70;100.00
69842;BME280;57138;51.326;-0.068;2023-10-13T04:12:15;98475.03;;;15.71;100.00
69842;BME280;57138;51.326;-0.068;2023-10-13T04:14:59;98485.81;;;15.71;100.00
69842;BME280;57138;51.326;-0.068;2023-10-13T04:17:30;98480.41;;;15.71;100.00
69842;BME280;57138;51.326;-0.068;2023-10-13T04:20:06;98482.31;;;15.76;100.00
69842;BME280;57138;51.326;-0.068;2023-10-13T04:22:41;98490.69;;;15.85;100.00
69842;BME280;57138;51.326;-0.068;2023-10-13T04:25:22;98427.59;;;15.65;100.00
69842;BME280;57138;51.326;-0.068;2023-10-13T04:28:20;98465.91;;;15.88;100.00
69842;BME280;57138;51.326;-0.068;2023-10-13T04:31:03;98472.66;;;15.90;100.00
69842;BME280;57138;51.326;-0.068;2023-10-13T04:33:51;98463.22;;;15.88;100.00
69842;BME280;57138;51.326;-0.068;2023-10-13T04:36:18;98446.53;;;15.91;100.00
69842;BME280;57138;51.326;-0.068;2023-10-13T04:38:59;98449.78;;;15.93;100.00
69842;BME280;57138;51.326;-0.068;2023-10-13T04:41:34;98459.19;;;15.95;100.00
69842;BME280;57138;51.326;-0.068;2023-10-13T04:44:18;98455.97;;;15.93;100.00
69842;BME280;57138;51.326;-0.068;2023-10-13T04:47:02;98453.00;;;15.95;100.00
69842;BME280;57138;51.326;-0.068;2023-10-13T04:49:29;98448.72;;;15.99;100.00
69842;BME280;57138;51.326;-0.068;2023-10-13T04:52:05;98452.75;;;16.02;100.00
69842;BME280;57138;51.326;-0.068;2023-10-13T04:54:35;98419.56;;;15.80;100.00
69842;BME280;57138;51.326;-0.068;2023-10-13T04:57:17;98445.47;;;15.87;100.00
69842;BME280;57138;51.326;-0.068;2023-10-13T04:59:49;98460.56;;;15.93;100.00
69842;BME280;57138;51.326;-0.068;2023-10-13T05:02:34;98436.81;;;15.85;100.00
69842;BME280;57138;51.326;-0.068;2023-10-13T05:05:03;98442.75;;;15.92;100.00
69842;BME280;57138;51.326;-0.068;2023-10-13T05:07:48;98441.44;;;15.94;100.00
69842;BME280;57138;51.326;-0.068;2023-10-13T05:10:37;98414.94;;;15.76;100.00
69842;BME280;57138;51.326;-0.068;2023-10-13T05:13:21;98421.19;;;15.92;100.00
69842;BME280;57138;51.326;-0.068;2023-10-13T05:16:27;98441.97;;;16.02;100.00
69842;BME280;57138;51.326;-0.068;2023-10-13T05:19:11;98415.81;;;15.97;100.00
69842;BME280;57138;51.326;-0.068;2023-10-13T05:21:55;98423.34;;;16.00;100.00
69842;BME280;57138;51.326;-0.068;2023-10-13T05:24:47;98412.03;;;16.03;100.00
69842;BME280;57138;51.326;-0.068;2023-10-13T05:27:32;98419.88;;;16.10;100.00
69842;BME280;57138;51.326;-0.068;2023-10-13T05:30:16;98415.56;;;16.04;100.00
69842;BME280;57138;51.326;-0.068;2023-10-13T05:33:03;98377.00;;;15.93;100.00
69842;BME280;57138;51.326;-0.068;2023-10-13T05:35:48;98397.50;;;16.04;100.00
69842;BME280;57138;51.326;-0.068;2023-10-13T05:38:32;98404.50;;;16.05;100.00
69842;BME280;57138;51.326;-0.068;2023-10-13T05:41:17;98389.94;;;16.16;100.00
69842;BME280;57138;51.326;-0.068;2023-10-13T05:44:01;98374.28;;;16.03;100.00
69842;BME280;57138;51.326;-0.068;2023-10-13T05:46:45;98366.78;;;16.05;100.00
69842;BME280;57138;51.326;-0.068;2023-10-13T05:49:15;98384.53;;;16.06;100.00
69842;BME280;57138;51.326;-0.068;2023-10-13T05:51:44;98384.00;;;16.09;100.00
69842;BME280;57138;51.326;-0.068;2023-10-13T05:54:28;98422.03;;;16.23;100.00
69842;BME280;57138;51.326;-0.068;2023-10-13T05:57:12;98396.44;;;16.21;100.00
69842;BME280;57138;51.326;-0.068;2023-10-13T05:59:56;98411.78;;;16.20;100.00
69842;BME280;57138;51.326;-0.068;2023-10-13T06:02:40;98373.78;;;16.11;100.00
69842;BME280;57138;51.326;-0.068;2023-10-13T06:05:27;98365.41;;;16.13;100.00
69842;BME280;57138;51.326;-0.068;2023-10-13T06:08:11;98361.91;;;16.23;100.00
69842;BME280;57138;51.326;-0.068;2023-10-13T06:11:02;98336.03;;;16.16;100.00
69842;BME280;57138;51.326;-0.068;2023-10-13T06:13:47;98358.38;;;16.43;100.00
69842;BME280;57138;51.326;-0.068;2023-10-13T06:16:46;98346.50;;;16.39;100.00
69842;BME280;57138;51.326;-0.068;2023-10-13T06:19:29;98330.09;;;16.30;100.00
69842;BME280;57138;51.326;-0.068;2023-10-13T06:22:24;98319.28;;;16.25;100.00
69842;BME280;57138;51.326;-0.068;2023-10-13T06:25:13;98328.47;;;16.29;100.00
69842;BME280;57138;51.326;-0.068;2023-10-13T06:28:13;98340.28;;;16.43;100.00
69842;BME280;57138;51.326;-0.068;2023-10-13T06:31:03;98309.56;;;16.29;100.00
69842;BME280;57138;51.326;-0.068;2023-10-13T06:33:32;98328.41;;;16.39;100.00
69842;BME280;57138;51.326;-0.068;2023-10-13T06:36:04;98348.06;;;16.65;100.00
69842;BME280;57138;51.326;-0.068;2023-10-13T06:38:41;98305.75;;;16.45;100.00
69842;BME280;57138;51.326;-0.068;2023-10-13T06:41:10;98303.06;;;16.50;100.00
69842;BME280;57138;51.326;-0.068;2023-10-13T06:43:46;98314.09;;;16.54;100.00
69842;BME280;57138;51.326;-0.068;2023-10-13T06:46:29;98310.03;;;16.62;100.00
69842;BME280;57138;51.326;-0.068;2023-10-13T06:49:00;98350.44;;;16.87;100.00
69842;BME280;57138;51.326;-0.068;2023-10-13T06:51:28;98362.81;;;16.94;100.00
69842;BME280;57138;51.326;-0.068;2023-10-13T06:54:04;98356.09;;;16.91;100.00
69842;BME280;57138;51.326;-0.068;2023-10-13T06:56:38;98350.16;;;16.84;100.00
69842;BME280;57138;51.326;-0.068;2023-10-13T06:59:06;98353.69;;;16.84;100.00
69842;BME280;57138;51.326;-0.068;2023-10-13T07:01:33;98340.13;;;17.05;100.00
69842;BME280;57138;51.326;-0.068;2023-10-13T07:04:10;98316.94;;;16.99;100.00
69842;BME280;57138;51.326;-0.068;2023-10-13T07:06:43;98328.28;;;16.96;100.00
69842;BME280;57138;51.326;-0.068;2023-10-13T07:09:31;98336.31;;;17.06;100.00
69842;BME280;57138;51.326;-0.068;2023-10-13T07:11:59;98311.75;;;17.07;100.00
69842;BME280;57138;51.326;-0.068;2023-10-13T07:14:29;98313.09;;;17.10;100.00
69842;BME280;57138;51.326;-0.068;2023-10-13T07:17:00;98310.16;;;17.06;100.00
69842;BME280;57138;51.326;-0.068;2023-10-13T07:19:30;98308.28;;;17.02;100.00
69842;BME280;57138;51.326;-0.068;2023-10-13T07:21:57;98321.19;;;17.10;100.00
69842;BME280;57138;51.326;-0.068;2023-10-13T07:24:34;98316.59;;;17.11;100.00
69842;BME280;57138;51.326;-0.068;2023-10-13T07:27:05;98302.81;;;17.12;100.00
69842;BME280;57138;51.326;-0.068;2023-10-13T07:29:31;98313.06;;;17.15;100.00
69842;BME280;57138;51.326;-0.068;2023-10-13T07:32:00;98328.16;;;17.21;100.00
69842;BME280;57138;51.326;-0.068;2023-10-13T07:34:29;98316.59;;;17.11;100.00
69842;BME280;57138;51.326;-0.068;2023-10-13T07:36:58;98314.13;;;17.19;100.00
69842;BME280;57138;51.326;-0.068;2023-10-13T07:39:29;98328.13;;;17.27;100.00
69842;BME280;57138;51.326;-0.068;2023-10-13T07:42:07;98311.16;;;17.21;100.00
69842;BME280;57138;51.326;-0.068;2023-10-13T07:44:40;98322.97;;;17.30;100.00
69842;BME280;57138;51.326;-0.068;2023-10-13T07:47:11;98314.06;;;17.30;100.00
69842;BME280;57138;51.326;-0.068;2023-10-13T07:49:37;98305.22;;;17.19;100.00
69842;BME280;57138;51.326;-0.068;2023-10-13T07:52:11;98317.06;;;17.28;100.00
69842;BME280;57138;51.326;-0.068;2023-10-13T07:54:50;98319.44;;;17.35;100.00
69842;BME280;57138;51.326;-0.068;2023-10-13T07:57:38;98271.19;;;17.18;100.00
69842;BME280;57138;51.326;-0.068;2023-10-13T08:00:24;98308.28;;;17.47;100.00
69842;BME280;57138;51.326;-0.068;2023-10-13T08:03:01;98310.72;;;17.43;100.00
69842;BME280;57138;51.326;-0.068;2023-10-13T08:05:53;98317.22;;;17.42;100.00
69842;BME280;57138;51.326;-0.068;2023-10-13T08:08:40;98329.41;;;17.39;100.00
69842;BME280;57138;51.326;-0.068;2023-10-13T08:11:12;98329.16;;;17.36;100.00
69842;BME280;57138;51.326;-0.068;2023-10-13T08:13:59;98305.50;;;17.17;100.00
69842;BME280;57138;51.326;-0.068;2023-10-13T08:16:31;98331.91;;;17.25;100.00
69842;BME280;57138;51.326;-0.068;2023-10-13T08:19:19;98317.34;;;17.21;100.00
69842;BME280;57138;51.326;-0.068;2023-10-13T08:21:48;98320.41;;;17.10;100.00
69842;BME280;57138;51.326;-0.068;2023-10-13T08:24:25;98344.69;;;17.04;100.00
69842;BME280;57138;51.326;-0.068;2023-10-13T08:26:54;98324.28;;;16.88;100.00
69842;BME280;57138;51.326;-0.068;2023-10-13T08:29:47;98284.94;;;16.61;100.00
69842;BME280;57138;51.326;-0.068;2023-10-13T08:32:25;98313.75;;;16.81;100.00
69842;BME280;57138;51.326;-0.068;2023-10-13T08:34:50;98308.38;;;16.71;100.00
69842;BME280;57138;51.326;-0.068;2023-10-13T08:37:20;98310.03;;;16.62;100.00
69842;BME280;57138;51.326;-0.068;2023-10-13T08:39:49;98320.28;;;16.65;100.00
69842;BME280;57138;51.326;-0.068;2023-10-13T08:42:37;98337.25;;;16.70;100.00
69842;BME280;57138;51.326;-0.068;2023-10-13T08:45:13;98338.09;;;16.61;100.00
69842;BME280;57138;51.326;-0.068;2023-10-13T08:47:50;98312.78;;;16.36;100.00
69842;BME280;57138;51.326;-0.068;2023-10-13T08:50:33;98336.47;;;16.54;100.00
69842;BME280;57138;51.326;-0.068;2023-10-13T08:53:22;98347.56;;;16.58;100.00
69842;BME280;57138;51.326;-0.068;2023-10-13T08:58:37;98332.72;;;16.50;100.00
69842;BME280;57138;51.326;-0.068;2023-10-13T09:01:33;98326.25;;;16.36;100.00
69842;BME280;57138;51.326;-0.068;2023-10-13T09:07:05;98346.22;;;16.40;100.00
69842;BME280;57138;51.326;-0.068;2023-10-13T09:09:45;98345.44;;;16.40;100.00
69842;BME280;57138;51.326;-0.068;2023-10-13T09:12:12;98334.34;;;16.36;100.00
69842;BME280;57138;51.326;-0.068;2023-10-13T09:14:40;98343.28;;;16.37;100.00
69842;BME280;57138;51.326;-0.068;2023-10-13T09:17:22;98343.53;;;16.35;100.00
69842;BME280;57138;51.326;-0.068;2023-10-13T09:20:09;98344.34;;;16.35;100.00
69842;BME280;57138;51.326;-0.068;2023-10-13T09:22:48;98330.88;;;16.30;100.00
69842;BME280;57138;51.326;-0.068;2023-10-13T09:25:39;98335.19;;;16.37;100.00
69842;BME280;57138;51.326;-0.068;2023-10-13T09:28:19;98334.91;;;16.38;100.00
69842;BME280;57138;51.326;-0.068;2023-10-13T09:30:52;98351.63;;;16.40;100.00
69842;BME280;57138;51.326;-0.068;2023-10-13T09:33:22;98340.53;;;16.47;100.00
69842;BME280;57138;51.326;-0.068;2023-10-13T09:36:18;98334.31;;;16.51;100.00
69842;BME280;57138;51.326;-0.068;2023-10-13T09:38:48;98335.97;;;16.47;100.00
69842;BME280;57138;51.326;-0.068;2023-10-13T09:41:30;98326.78;;;16.48;100.00
69842;BME280;57138;51.326;-0.068;2023-10-13T09:43:57;98336.75;;;16.58;100.00
69842;BME280;57138;51.326;-0.068;2023-10-13T09:46:26;98325.72;;;16.44;100.00
69842;BME280;57138;51.326;-0.068;2023-10-13T09:49:04;98351.03;;;16.59;100.00
69842;BME280;57138;51.326;-0.068;2023-10-13T09:51:39;98342.44;;;16.57;100.00
69842;BME280;57138;51.326;-0.068;2023-10-13T09:54:30;98357.00;;;16.56;100.00
69842;BME280;57138;51.326;-0.068;2023-10-13T09:57:06;98348.66;;;16.52;100.00
69842;BME280;57138;51.326;-0.068;2023-10-13T09:59:44;98302.53;;;16.33;100.00
69842;BME280;57138;51.326;-0.068;2023-10-13T10:02:21;98333.28;;;16.42;100.00
69842;BME280;57138;51.326;-0.068;2023-10-13T10:04:55;98345.13;;;16.57;100.00
69842;BME280;57138;51.326;-0.068;2023-10-13T10:07:37;98351.31;;;16.57;100.00
69842;BME280;57138;51.326;-0.068;2023-10-13T10:10:05;98337.00;;;16.62;100.00
69842;BME280;57138;51.326;-0.068;2023-10-13T10:18:20;98325.66;;;16.70;100.00
69842;BME280;57138;51.326;-0.068;2023-10-13T10:20:48;98321.59;;;16.73;100.00
69842;BME280;57138;51.326;-0.068;2023-10-13T10:23:27;98311.59;;;16.73;100.00
69842;BME280;57138;51.326;-0.068;2023-10-13T10:26:15;98326.69;;;16.84;100.00
69842;BME280;57138;51.326;-0.068;2023-10-13T10:28:45;98310.00;;;16.72;100.00
69842;BME280;57138;51.326;-0.068;2023-10-13T10:31:11;98330.97;;;16.85;100.00
69842;BME280;57138;51.326;-0.068;2023-10-13T10:33:45;98338.03;;;16.86;100.00
69842;BME280;57138;51.326;-0.068;2023-10-13T10:36:17;98343.44;;;16.86;100.00
69842;BME280;57138;51.326;-0.068;2023-10-13T10:38:56;98338.81;;;16.92;100.00
69842;BME280;57138;51.326;-0.068;2023-10-13T10:41:29;98338.81;;;16.92;100.00
69842;BME280;57138;51.326;-0.068;2023-10-13T10:44:10;98324.25;;;16.93;100.00
69842;BME280;57138;51.326;-0.068;2023-10-13T10:46:40;98312.66;;;16.82;100.00
69842;BME280;57138;51.326;-0.068;2023-10-13T10:49:07;98315.84;;;17.00;100.00
69842;BME280;57138;51.326;-0.068;2023-10-13T10:51:36;98318.00;;;16.98;100.00
69842;BME280;57138;51.326;-0.068;2023-10-13T10:54:18;98318.00;;;16.98;100.00
69842;BME280;57138;51.326;-0.068;2023-10-13T10:56:44;98288.06;;;16.89;100.00
69842;BME280;57138;51.326;-0.068;2023-10-13T10:59:17;98317.41;;;17.06;100.00
69842;BME280;57138;51.326;-0.068;2023-10-13T11:01:50;98306.34;;;17.07;100.00
69842;BME280;57138;51.326;-0.068;2023-10-13T11:04:18;98316.59;;;17.11;100.00
69842;BME280;57138;51.326;-0.068;2023-10-13T11:06:48;98304.38;;;17.23;100.00
69842;BME280;57138;51.326;-0.068;2023-10-13T11:09:15;98291.91;;;17.33;100.00
69842;BME280;57138;51.326;-0.068;2023-10-13T11:11:50;98306.97;;;17.39;100.00
69842;BME280;57138;51.326;-0.068;2023-10-13T11:16:51;98302.84;;;17.52;100.00
69842;BME280;57138;51.326;-0.068;2023-10-13T11:19:38;98290.94;;;17.53;100.00
69842;BME280;57138;51.326;-0.068;2023-10-13T11:22:11;98281.97;;;17.57;100.00
69842;BME280;57138;51.326;-0.068;2023-10-13T11:24:48;98273.28;;;17.66;100.00
69842;BME280;57138;51.326;-0.068;2023-10-13T11:27:17;98274.03;;;17.76;100.00
69842;BME280;57138;51.326;-0.068;2023-10-13T11:29:46;98282.97;;;17.72;100.00
69842;BME280;57138;51.326;-0.068;2023-10-13T11:32:17;98283.53;;;17.69;100.00
69842;BME280;57138;51.326;-0.068;2023-10-13T11:34:45;98276.50;;;17.68;100.00
69842;BME280;57138;51.326;-0.068;2023-10-13T11:37:10;98280.84;;;17.69;100.00
69842;BME280;57138;51.326;-0.068;2023-10-13T11:40:03;98285.97;;;17.70;100.00
69842;BME280;57138;51.326;-0.068;2023-10-13T11:42:35;98277.59;;;17.67;100.00
69842;BME280;57138;51.326;-0.068;2023-10-13T11:45:01;98289.34;;;17.86;100.00
69842;BME280;57138;51.326;-0.068;2023-10-13T11:47:47;98292.00;;;17.91;100.00
69842;BME280;57138;51.326;-0.068;2023-10-13T11:50:25;98283.28;;;18.00;100.00
69842;BME280;57138;51.326;-0.068;2023-10-13T11:53:11;98286.03;;;17.94;100.00
69842;BME280;57138;51.326;-0.068;2023-10-13T11:55:37;98291.22;;;17.91;100.00
69842;BME280;57138;51.326;-0.068;2023-10-13T11:58:03;98304.47;;;17.87;100.00
69842;BME280;57138;51.326;-0.068;2023-10-13T12:00:33;98303.41;;;17.83;100.00
69842;BME280;57138;51.326;-0.068;2023-10-13T12:03:26;98300.19;;;17.81;100.00
69842;BME280;57138;51.326;-0.068;2023-10-13T12:06:10;98293.94;;;17.86;100.00
69842;BME280;57138;51.326;-0.068;2023-10-13T12:08:48;98310.44;;;17.89;100.00
69842;BME280;57138;51.326;-0.068;2023-10-13T12:11:18;98301.19;;;17.95;100.00
69842;BME280;57138;51.326;-0.068;2023-10-13T12:13:56;98304.34;;;18.03;100.00
69842;BME280;57138;51.326;-0.068;2023-10-13T12:16:23;98303.88;;;17.95;100.00
69842;BME280;57138;51.326;-0.068;2023-10-13T12:19:00;98313.56;;;18.02;100.00
69842;BME280;57138;51.326;-0.068;2023-10-13T12:21:27;98274.03;;;17.76;100.00
69842;BME280;57138;51.326;-0.068;2023-10-13T12:23:52;98317.69;;;17.94;100.00
69842;BME280;57138;51.326;-0.068;2023-10-13T12:26:19;98319.06;;;17.91;100.00
69842;BME280;57138;51.326;-0.068;2023-10-13T12:28:47;98282.44;;;17.70;100.00
69842;BME280;57138;51.326;-0.068;2023-10-13T12:31:43;98295.06;;;17.79;100.00
69842;BME280;57138;51.326;-0.068;2023-10-13T12:34:16;98295.53;;;17.87;100.00
69842;BME280;57138;51.326;-0.068;2023-10-13T12:37:01;98300.34;;;18.00;100.00
69842;BME280;57138;51.326;-0.068;2023-10-13T12:39:46;98284.00;;;17.76;100.00
69842;BME280;57138;51.326;-0.068;2023-10-13T12:42:38;98286.63;;;17.86;100.00
69842;BME280;57138;51.326;-0.068;2023-10-13T12:45:25;98272.69;;;17.74;100.00
69842;BME280;57138;51.326;-0.068;2023-10-13T12:48:12;98278.66;;;17.71;100.00
69842;BME280;57138;51.326;-0.068;2023-10-13T12:51:00;98271.19;;;17.57;100.00
69842;BME280;57138;51.326;-0.068;2023-10-13T12:53:47;98278.19;;;17.58;100.00
69842;BME280;57138;51.326;-0.068;2023-10-13T12:56:14;98264.19;;;17.56;100.00
69842;BME280;57138;51.326;-0.068;2023-10-13T12:58:54;98286.25;;;17.69;100.00
69842;BME280;57138;51.326;-0.068;2023-10-13T13:01:28;98267.88;;;17.66;100.00
69842;BME280;57138;51.326;-0.068;2023-10-13T13:03:58;98261.44;;;17.61;100.00
69842;BME280;57138;51.326;-0.068;2023-10-13T13:06:30;98276.44;;;17.78;100.00
69842;BME280;57138;51.326;-0.068;2023-10-13T13:08:57;98282.03;;;17.87;100.00
69842;BME280;57138;51.326;-0.068;2023-10-13T13:11:24;98249.50;;;17.68;100.00
69842;BME280;57138;51.326;-0.068;2023-10-13T13:13:55;98246.44;;;17.74;100.00
69842;BME280;57138;51.326;-0.068;2023-10-13T13:16:20;98258.31;;;17.78;100.00
69842;BME280;57138;51.326;-0.068;2023-10-13T13:19:07;98237.53;;;17.74;100.00
69842;BME280;57138;51.326;-0.068;2023-10-13T13:21:37;98284.91;;;18.01;100.00
69842;BME280;57138;51.326;-0.068;2023-10-13T13:24:04;98242.88;;;17.84;100.00
69842;BME280;57138;51.326;-0.068;2023-10-13T13:26:37;98225.81;;;17.84;100.00
69842;BME280;57138;51.326;-0.068;2023-10-13T13:32:05;98257.06;;;18.00;100.00
69842;BME280;57138;51.326;-0.068;2023-10-13T13:34:33;98272.38;;;18.10;100.00
69842;BME280;57138;51.326;-0.068;2023-10-13T13:36:58;98233.09;;;17.88;100.00
69842;BME280;57138;51.326;-0.068;2023-10-13T13:39:30;98243.84;;;17.99;100.00